Etusivu
METAR-TAF:

METAR-TAF

Lentoasemat :

Yapin kansainvälinen lentoasema

Yap, Mikronesia

Leveyspiiri: 09-29N, Pituuspiiri: 138-05E, korkeus merenpinnasta: 28 m

Tämänhetkinen sää

Tämä raportti tehtiin 42 minuuttia sitten, kello 12.50 UTC
Tuuli 4 kn eri suunnista
Lämpötila 26°C
Kosteus 79%
Ilmanpaine 1013 hPa
Näkyvyys: 19.3 km
Muutamia pilviä 1600 ft:n korkeudessa
Hajanaisia pilviä 30000 ft:n korkeudessa

METAR: PTYA 081250Z VRB04KT 12SM FEW016 SCT300 26/22 A2992 RMK SLP132 T02600223

Aika: 23:32 (13:32 UTC)

Sääennuste

Tämä raportti tehtiin 2 tuntia ja 12 minuuttia sitten, kello 11.20 UTC
Ennuste voimassa 08. päivästä klo 12 UTC - 09. päivään klo 12 UTC
Tuuli 8 kn idästä/koillisesta
Näkyvyys: 10 km
Hajanaisia pilviä 1700 ft:n korkeudessa

TAF: PTYA 081120Z 0812/0912 06008KT P6SM SCT017

Säähavainnot ja -ennusteet yli 4000 lentoasemalta (METAR- ja TAF-raportit).

Käytössä olevat sääasemat on merkitty karttaan keltaisilla ja punaisilla pisteillä.

Aseta hiiri pisteen päälle nähdäksesi sääaseman nimen.

Klikkaa sitten nähdäksesi säähavainnot ja -ennusteet.

Kartan vaihtaminen: klikkaa mustalla rastilla varustettuja vihreitä pisteitä, niin voit zoomata sisään; viivalla varustettua vihreää pistettä, niin voit zoomata ulos tai vihreitä nuolia, niin pääset viereisille kartoille.


METAR-TAF: